Time;durP1;ratioP1;P1;durP2;ratioP2;P2;SDS_P1;SDS_P2;PMS_P1;PMS_P2;Temp;Humidity;BMP_temperature;BMP_pressure;BME280_temperature;BME280_humidity;BME280_pressure;Samples;Min_cycle;Max_cycle;Signal;HPM_P1;HPM_P2
2023/07/19 00:00:56;;;;;;;;;11.00;11.00;;;;;28.91;46.35;100871.47;2106087;28;46471;-57
2023/07/19 00:01:56;;;;;;;;;16.75;15.00;;;;;28.92;46.48;100873.19;2106142;28;46246;-57
2023/07/19 00:03:00;;;;;;;;;12.00;11.25;;;;;28.92;46.14;100876.78;2105804;28;46751;-56
2023/07/19 00:04:00;;;;;;;;;9.80;9.80;;;;;28.90;46.11;100877.94;2106078;28;47137;-59
2023/07/19 00:05:00;;;;;;;;;7.00;7.00;;;;;28.89;46.60;100868.03;2106146;27;46300;-57
2023/07/19 00:06:01;;;;;;;;;7.25;7.25;;;;;28.90;46.36;100869.75;2106148;28;46235;-57
2023/07/19 00:07:02;;;;;;;;;5.50;5.25;;;;;28.89;46.53;100868.03;2105897;28;46903;-58
2023/07/19 00:08:03;;;;;;;;;6.50;6.50;;;;;28.88;46.44;100872.63;2106192;28;46368;-56
2023/07/19 00:09:04;;;;;;;;;6.00;6.00;;;;;28.86;46.12;100869.16;2106074;28;46670;-57
2023/07/19 00:10:05;;;;;;;;;1.00;1.00;;;;;28.86;46.53;100868.31;2106105;28;46306;-54
2023/07/19 00:11:05;;;;;;;;;7.00;6.40;;;;;28.85;46.66;100874.78;2106347;28;45627;-57
2023/07/19 00:12:06;;;;;;;;;6.00;5.50;;;;;28.83;46.27;100872.16;2106055;28;46333;-58
2023/07/19 00:13:06;;;;;;;;;3.50;3.50;;;;;28.82;46.39;100873.19;2105825;28;45348;-57
2023/07/19 00:14:07;;;;;;;;;26.00;23.75;;;;;28.79;45.97;100870.75;2096886;28;46597;-56
2023/07/19 00:15:07;;;;;;;;;12.25;10.00;;;;;28.79;46.30;100878.09;2097054;28;46457;-55
2023/07/19 00:16:08;;;;;;;;;6.50;6.00;;;;;28.77;46.02;100874.63;2106099;28;46626;-58
2023/07/19 00:17:08;;;;;;;;;6.25;5.25;;;;;28.71;46.12;100876.97;2106144;28;46344;-55
2023/07/19 00:18:08;;;;;;;;;11.00;9.50;;;;;28.76;46.44;100879.25;2106243;28;46555;-58
2023/07/19 00:19:09;;;;;;;;;8.75;8.75;;;;;28.70;46.55;100880.66;2105665;28;46457;-57
2023/07/19 00:20:11;;;;;;;;;4.25;4.25;;;;;28.67;46.36;100875.50;2106387;28;46912;-58
2023/07/19 00:21:11;;;;;;;;;11.20;8.60;;;;;28.66;46.50;100875.66;2096976;28;46391;-57
2023/07/19 00:22:11;;;;;;;;;7.25;7.00;;;;;28.64;46.03;100870.34;2096952;28;46320;-57
2023/07/19 00:23:12;;;;;;;;;4.75;4.25;;;;;28.63;46.51;100875.97;2096999;28;46371;-57
2023/07/19 00:24:12;;;;;;;;;8.75;7.75;;;;;28.61;46.31;100883.44;2097249;28;46464;-58
2023/07/19 00:25:12;;;;;;;;;7.00;7.00;;;;;28.59;45.99;100874.53;2105935;28;47014;-59
2023/07/19 00:26:13;;;;;;;;;8.00;7.75;;;;;28.56;46.05;100878.41;2106170;28;46326;-58
2023/07/19 00:27:13;;;;;;;;;12.00;10.00;;;;;28.57;46.35;100874.66;2106060;28;46583;-56
2023/07/19 00:28:13;;;;;;;;;8.00;7.25;;;;;28.56;46.44;100869.34;2105917;28;46323;-58
2023/07/19 00:29:14;;;;;;;;;10.75;9.25;;;;;28.56;46.36;100877.53;2105867;28;46398;-57
2023/07/19 00:30:14;;;;;;;;;9.00;8.75;;;;;28.56;46.33;100878.41;2106226;28;46814;-57
2023/07/19 00:31:14;;;;;;;;;15.50;15.50;;;;;28.61;46.13;100876.09;2105971;28;46324;-58
2023/07/19 00:32:15;;;;;;;;;8.50;8.00;;;;;28.63;46.11;100874.09;2096982;28;46382;-55
2023/07/19 00:33:15;;;;;;;;;16.50;15.00;;;;;28.61;46.19;100873.38;2097007;28;46783;-57
2023/07/19 00:34:15;;;;;;;;;16.00;14.75;;;;;28.61;46.18;100877.97;2105995;28;46690;-60
2023/07/19 00:35:16;;;;;;;;;16.75;15.50;;;;;28.60;46.07;100877.13;2105599;28;46712;-57
2023/07/19 00:36:16;;;;;;;;;6.50;6.50;;;;;28.59;46.11;100882.72;2105810;28;46360;-56
2023/07/19 00:37:17;;;;;;;;;4.75;4.75;;;;;28.59;46.07;100885.47;2106214;28;46767;-57
2023/07/19 00:38:17;;;;;;;;;3.00;3.00;;;;;28.58;45.94;100889.16;2105958;28;45978;-58
2023/07/19 00:39:17;;;;;;;;;22.75;22.75;;;;;28.55;46.21;100886.75;2105736;28;46357;-58
2023/07/19 00:40:18;;;;;;;;;38.75;33.25;;;;;28.54;45.91;100890.47;2105866;28;46272;-58
2023/07/19 00:41:18;;;;;;;;;42.50;33.75;;;;;28.53;46.21;100889.63;2105861;28;46343;-57
2023/07/19 00:42:18;;;;;;;;;24.75;23.50;;;;;28.53;46.16;100886.03;2105554;28;46273;-58
2023/07/19 00:43:19;;;;;;;;;37.25;32.75;;;;;28.52;46.46;100882.44;2105855;28;46275;-55
2023/07/19 00:44:20;;;;;;;;;19.25;19.25;;;;;28.45;46.75;100884.00;2106090;28;46578;-58
2023/07/19 00:45:20;;;;;;;;;12.20;11.60;;;;;28.51;46.36;100886.16;2105559;28;46842;-58
2023/07/19 00:46:21;;;;;;;;;6.00;6.00;;;;;28.51;46.50;100883.44;2105841;28;46596;-58
2023/07/19 00:47:22;;;;;;;;;4.75;3.75;;;;;28.50;46.87;100881.72;2105758;28;46688;-58
2023/07/19 00:48:22;;;;;;;;;4.00;4.00;;;;;28.49;46.39;100879.13;2105843;28;45938;-56
2023/07/19 00:49:22;;;;;;;;;2.25;1.50;;;;;28.49;46.46;100881.88;2105873;28;46225;-58
2023/07/19 00:50:23;;;;;;;;;3.33;2.67;;;;;28.45;46.29;100875.81;2105922;28;46242;-58
2023/07/19 00:51:23;;;;;;;;;2.00;2.00;;;;;28.47;46.46;100878.44;2105975;28;46323;-58
2023/07/19 00:52:24;;;;;;;;;1.67;1.67;;;;;28.45;46.48;100878.53;2105712;28;46226;-58
2023/07/19 00:53:25;;;;;;;;;5.33;3.00;;;;;28.44;46.60;100885.00;2105734;28;46916;-58
2023/07/19 00:54:26;;;;;;;;;3.00;3.00;;;;;28.42;47.15;100882.44;2105887;28;46907;-58
2023/07/19 00:55:27;;;;;;;;;2.50;2.50;;;;;28.41;46.70;100886.16;2106096;28;46610;-57
2023/07/19 00:56:27;;;;;;;;;2.00;2.00;;;;;28.41;46.82;100877.13;2105641;28;46647;-57
2023/07/19 00:57:28;;;;;;;;;1.00;1.00;;;;;28.41;47.11;100886.16;2106026;28;46742;-58
2023/07/19 00:58:29;;;;;;;;;1.00;1.00;;;;;28.36;46.95;100877.56;2096615;28;46355;-58
2023/07/19 00:59:30;;;;;;;;;2.25;2.00;;;;;28.32;47.40;100876.09;2096973;28;46520;-57
2023/07/19 01:00:30;;;;;;;;;3.00;2.00;;;;;28.29;46.92;100879.13;2105389;27;46328;-58
2023/07/19 01:01:31;;;;;;;;;1.33;1.00;;;;;28.27;47.17;100878.41;2105142;28;46502;-57
2023/07/19 01:02:32;;;;;;;;;1.00;1.00;;;;;28.26;47.33;100882.13;2104965;28;46455;-57
2023/07/19 01:03:33;;;;;;;;;3.00;3.00;;;;;28.29;47.11;100872.81;2105990;28;46044;-57
2023/07/19 01:04:33;;;;;;;;;3.25;2.25;;;;;28.28;47.04;100879.28;2105805;28;46340;-56
2023/07/19 01:05:34;;;;;;;;;0.00;0.00;;;;;28.25;47.26;100879.53;2106078;28;46225;-58
2023/07/19 01:06:34;;;;;;;;;2.67;2.67;;;;;28.25;47.38;100885.84;2105495;28;46064;-56
2023/07/19 01:07:35;;;;;;;;;3.00;3.00;;;;;28.24;47.48;100880.53;2105681;28;46428;-58
2023/07/19 01:08:35;;;;;;;;;6.00;4.00;;;;;28.24;47.88;100886.00;2106073;28;46756;-57
2023/07/19 01:09:35;;;;;;;;;2.67;2.33;;;;;28.23;47.41;100885.16;2105937;28;46588;-58
2023/07/19 01:10:36;;;;;;;;;2.67;2.67;;;;;28.22;47.79;100894.34;2105889;28;45575;-58
2023/07/19 01:11:36;;;;;;;;;2.00;2.00;;;;;28.20;47.72;100881.81;2105613;28;46190;-55
2023/07/19 01:12:36;;;;;;;;;2.00;2.00;;;;;28.26;47.97;100882.13;2105442;28;46115;-58
2023/07/19 01:13:37;;;;;;;;;3.33;2.00;;;;;28.29;47.99;100883.72;2105730;28;45789;-57
2023/07/19 01:14:37;;;;;;;;;1.00;1.00;;;;;28.28;48.00;100877.41;2096791;28;46241;-57
2023/07/19 01:15:40;;;;;;;;;2.67;1.67;;;;;28.30;48.12;100882.72;2096549;28;46765;-58
2023/07/19 01:16:40;;;;;;;;;1.50;1.50;;;;;28.26;48.08;100879.41;2096810;28;46540;-58
2023/07/19 01:17:40;;;;;;;;;3.00;2.25;;;;;28.26;47.75;100873.94;2096619;28;46263;-57
2023/07/19 01:18:41;;;;;;;;;3.00;1.00;;;;;28.25;47.81;100871.34;2105885;28;46764;-55
2023/07/19 01:19:41;;;;;;;;;4.00;2.75;;;;;28.21;48.05;100868.06;2105809;28;46342;-57
2023/07/19 01:20:41;;;;;;;;;1.00;1.00;;;;;28.21;47.83;100869.94;2105820;28;46311;-57
2023/07/19 01:21:42;;;;;;;;;3.50;1.00;;;;;28.21;47.84;100867.19;2096508;28;46420;-56
2023/07/19 01:22:44;;;;;;;;;2.00;2.00;;;;;28.21;47.77;100868.06;2096960;28;46728;-56
2023/07/19 01:23:44;;;;;;;;;1.80;1.80;;;;;28.22;47.86;100874.38;2105835;28;46774;-56
2023/07/19 01:24:44;;;;;;;;;1.50;1.50;;;;;28.21;47.85;100868.06;2105447;28;46373;-58
2023/07/19 01:25:45;;;;;;;;;1.75;1.25;;;;;28.22;47.68;100871.66;2105563;28;46183;-57
2023/07/19 01:26:45;;;;;;;;;2.00;1.25;;;;;28.22;48.07;100868.91;2105901;28;46439;-56
2023/07/19 01:27:45;;;;;;;;;3.00;1.75;;;;;28.21;48.23;100867.19;2105728;27;46735;-56
2023/07/19 01:28:46;;;;;;;;;1.50;1.50;;;;;28.19;48.11;100864.59;2105732;28;46791;-57
2023/07/19 01:29:46;;;;;;;;;3.00;3.00;;;;;28.18;48.15;100871.06;2105740;28;46950;-56
2023/07/19 01:30:46;;;;;;;;;3.75;2.25;;;;;28.19;48.58;100874.63;2105884;28;45891;-55
2023/07/19 01:31:46;;;;;;;;;2.00;2.00;;;;;28.17;48.74;100866.59;2104954;28;46608;-59
2023/07/19 01:32:47;;;;;;;;;1.00;1.00;;;;;28.17;48.71;100871.19;2105700;28;46090;-58
2023/07/19 01:33:47;;;;;;;;;1.00;1.00;;;;;28.17;48.73;100872.06;2105413;28;46875;-58
2023/07/19 01:34:48;;;;;;;;;1.25;1.25;;;;;28.15;47.95;100874.06;2105493;28;46602;-57
2023/07/19 01:35:48;;;;;;;;;2.00;2.00;;;;;28.15;48.26;100874.94;2105717;28;46546;-56
2023/07/19 01:36:48;;;;;;;;;1.75;1.75;;;;;28.09;48.78;100878.25;2105612;28;46511;-56
2023/07/19 01:37:49;;;;;;;;;2.00;1.25;;;;;28.12;48.56;100879.81;2105581;28;47384;-57
2023/07/19 01:38:49;;;;;;;;;2.00;2.00;;;;;28.09;48.83;100874.66;2105595;28;46431;-57
2023/07/19 01:39:50;;;;;;;;;2.00;2.00;;;;;28.08;48.82;100875.66;2105824;28;46758;-57
2023/07/19 01:40:50;;;;;;;;;2.00;2.00;;;;;28.08;48.31;100875.66;2105881;28;46809;-55
2023/07/19 01:41:50;;;;;;;;;2.00;2.00;;;;;28.05;48.46;100879.50;2105331;28;46666;-57
2023/07/19 01:42:51;;;;;;;;;2.00;1.00;;;;;28.05;48.87;100876.78;2105522;28;46306;-57
2023/07/19 01:43:51;;;;;;;;;2.25;0.50;;;;;28.06;48.33;100880.38;2105210;28;46601;-56
2023/07/19 01:44:53;;;;;;;;;2.50;2.50;;;;;28.02;48.19;100881.66;2105396;28;46557;-58
2023/07/19 01:45:53;;;;;;;;;3.00;2.00;;;;;28.03;48.36;100880.66;2105758;28;47023;-59
2023/07/19 01:46:54;;;;;;;;;2.00;1.00;;;;;28.01;47.96;100882.69;2105451;28;46391;-56
2023/07/19 01:47:54;;;;;;;;;2.00;2.00;;;;;27.99;47.83;100895.59;2105235;28;46654;-59
2023/07/19 01:48:55;;;;;;;;;2.50;1.25;;;;;27.99;47.87;100884.69;2105226;28;46662;-57
2023/07/19 01:49:55;;;;;;;;;2.75;1.25;;;;;27.98;47.71;100885.69;2105341;28;46466;-58
2023/07/19 01:50:55;;;;;;;;;1.00;1.00;;;;;27.96;48.26;100877.66;2105603;28;46417;-58
2023/07/19 01:51:56;;;;;;;;;2.00;1.00;;;;;27.99;48.07;100884.69;2105278;28;46193;-59
2023/07/19 01:52:56;;;;;;;;;1.75;1.75;;;;;27.96;48.03;100884.97;2105262;28;46343;-55
2023/07/19 01:53:57;;;;;;;;;3.67;1.67;;;;;28.00;48.27;100886.41;2105629;28;46667;-57
2023/07/19 01:54:57;;;;;;;;;1.00;1.00;;;;;28.00;47.69;100892.72;2105286;28;46554;-55
2023/07/19 01:55:57;;;;;;;;;2.50;2.00;;;;;27.99;48.08;100887.41;2105507;28;46588;-57
2023/07/19 01:56:58;;;;;;;;;0.50;0.50;;;;;28.01;47.32;100891.72;2105131;28;46649;-54
2023/07/19 01:57:58;;;;;;;;;4.67;2.00;;;;;28.03;48.06;100886.97;2105564;28;46847;-55
2023/07/19 01:58:58;;;;;;;;;1.00;0.00;;;;;27.98;47.75;100899.34;2105373;28;46386;-57
2023/07/19 01:59:59;;;;;;;;;1.50;1.50;;;;;28.01;47.70;100891.72;2105658;28;46321;-56
2023/07/19 02:00:59;;;;;;;;;3.00;2.00;;;;;28.01;47.59;100888.13;2104850;28;46169;-59
2023/07/19 02:01:59;;;;;;;;;2.00;2.00;;;;;28.02;47.82;100889.84;2105560;28;46711;-58
2023/07/19 02:03:00;;;;;;;;;3.00;3.00;;;;;27.98;47.84;100894.75;2105250;28;46461;-57
2023/07/19 02:04:00;;;;;;;;;1.50;1.50;;;;;27.87;47.43;100891.28;2105398;28;46579;-57
2023/07/19 02:05:01;;;;;;;;;5.00;2.50;;;;;27.94;47.73;100890.56;2105051;28;46356;-56
2023/07/19 02:06:01;;;;;;;;;1.75;1.75;;;;;27.96;47.55;100899.47;2105680;28;46619;-56
2023/07/19 02:07:01;;;;;;;;;2.00;2.00;;;;;27.96;47.68;100902.22;2105096;28;45634;-57
2023/07/19 02:08:03;;;;;;;;;4.00;3.50;;;;;27.95;47.94;100894.13;2096352;28;46198;-58
2023/07/19 02:09:03;;;;;;;;;2.60;2.60;;;;;27.95;47.98;100903.22;2087452;28;46848;-58
2023/07/19 02:10:04;;;;;;;;;2.00;2.00;;;;;27.98;47.64;100902.06;2087546;28;46982;-58
2023/07/19 02:11:05;;;;;;;;;1.67;1.00;;;;;27.98;47.43;100900.19;2100484;28;46228;-58
2023/07/19 02:12:05;;;;;;;;;1.00;1.00;;;;;27.96;47.90;100898.63;2104544;27;46346;-56
2023/07/19 02:13:06;;;;;;;;;1.60;1.60;;;;;27.96;47.53;100904.06;2096189;28;46469;-58
2023/07/19 02:14:06;;;;;;;;;3.00;3.00;;;;;27.88;47.90;100902.03;2096381;28;45868;-56
2023/07/19 02:15:07;;;;;;;;;3.75;3.00;;;;;27.96;47.59;100904.94;2105152;28;46919;-55
2023/07/19 02:16:07;;;;;;;;;3.00;3.00;;;;;27.87;48.17;100907.63;2105333;28;46412;-54
2023/07/19 02:17:07;;;;;;;;;1.25;1.25;;;;;27.97;47.74;100903.94;2105221;28;46108;-56
2023/07/19 02:18:08;;;;;;;;;3.25;2.25;;;;;27.95;48.24;100903.22;2105235;28;46121;-56
2023/07/19 02:19:08;;;;;;;;;3.00;2.00;;;;;27.90;47.72;100901.91;2105077;28;46617;-57
2023/07/19 02:20:09;;;;;;;;;3.50;1.75;;;;;27.88;47.91;100906.63;2105242;28;46184;-58
2023/07/19 02:21:09;;;;;;;;;0.50;0.50;;;;;27.89;48.11;100902.91;2105384;28;46593;-55
2023/07/19 02:22:09;;;;;;;;;3.00;3.00;;;;;27.90;47.82;100907.34;2104616;28;46343;-56
2023/07/19 02:23:10;;;;;;;;;1.00;1.00;;;;;28.00;48.00;100905.50;2105321;28;46820;-57
2023/07/19 02:24:10;;;;;;;;;3.33;2.00;;;;;28.00;47.83;100895.47;2104839;28;46873;-55
2023/07/19 02:25:10;;;;;;;;;2.25;2.00;;;;;28.01;47.70;100899.91;2096666;28;46613;-57
2023/07/19 02:26:11;;;;;;;;;2.00;2.00;;;;;28.02;47.82;100904.34;2096100;28;46648;-57
2023/07/19 02:27:12;;;;;;;;;2.00;2.00;;;;;28.03;47.78;100905.22;2105221;28;46787;-58
2023/07/19 02:28:12;;;;;;;;;2.40;2.40;;;;;28.02;47.65;100907.09;2105131;28;46877;-56
2023/07/19 02:29:12;;;;;;;;;2.33;2.00;;;;;28.03;47.60;100910.69;2105042;28;46487;-57
2023/07/19 02:30:13;;;;;;;;;3.00;3.00;;;;;27.96;47.80;100906.81;2105137;28;46771;-54
2023/07/19 02:31:13;;;;;;;;;3.67;3.67;;;;;27.91;47.65;100909.94;2105492;28;46407;-56
2023/07/19 02:32:13;;;;;;;;;2.75;2.75;;;;;27.96;47.79;100912.25;2104975;28;46459;-57
2023/07/19 02:33:14;;;;;;;;;2.00;2.00;;;;;28.00;47.47;100909.09;2105075;28;46256;-56
2023/07/19 02:34:18;;;;;;;;;2.80;2.80;;;;;28.00;48.04;100903.63;2105023;28;46160;-57
2023/07/19 02:35:18;;;;;;;;;3.40;1.00;;;;;28.08;47.67;100905.69;2079021;28;46766;-57
2023/07/19 02:36:19;;;;;;;;;1.00;1.00;;;;;27.95;47.55;100903.22;2079757;28;46407;-57
2023/07/19 02:37:19;;;;;;;;;3.00;3.00;;;;;27.91;47.63;100903.63;2096287;28;46575;-57
2023/07/19 02:38:21;;;;;;;;;1.00;1.00;;;;;27.94;47.90;100901.47;2105288;28;46475;-57
2023/07/19 02:39:21;;;;;;;;;2.20;1.20;;;;;27.93;47.38;100907.06;2103669;28;46573;-56
2023/07/19 02:40:21;;;;;;;;;1.75;1.75;;;;;27.92;47.83;100903.47;2104107;28;46921;-57
2023/07/19 02:41:22;;;;;;;;;2.00;2.00;;;;;27.93;47.58;100907.06;2104967;28;45667;-57
2023/07/19 02:42:22;;;;;;;;;1.25;1.00;;;;;27.94;47.64;100911.50;2105191;28;46934;-57
2023/07/19 02:43:22;;;;;;;;;1.00;1.00;;;;;27.95;47.82;100913.22;2105019;28;46617;-57
2023/07/19 02:44:23;;;;;;;;;1.00;1.00;;;;;27.96;47.75;100909.53;2105371;28;46572;-59
2023/07/19 02:45:24;;;;;;;;;2.00;2.00;;;;;27.94;47.37;100908.78;2105187;28;46478;-57
2023/07/19 02:46:24;;;;;;;;;1.75;1.75;;;;;27.93;47.91;100907.06;2104833;28;46523;-57
2023/07/19 02:47:25;;;;;;;;;1.75;1.75;;;;;27.92;47.85;100908.94;2104842;28;46598;-57
2023/07/19 02:48:25;;;;;;;;;5.00;3.25;;;;;27.97;47.99;100908.53;2105259;28;45966;-58
2023/07/19 02:49:25;;;;;;;;;2.50;2.50;;;;;27.97;47.51;100913.97;2105035;28;46811;-58
2023/07/19 02:50:25;;;;;;;;;1.00;1.00;;;;;27.96;48.17;100915.00;2105193;28;46513;-59
2023/07/19 02:51:26;;;;;;;;;1.75;1.75;;;;;27.89;48.21;100916.53;2104743;28;46883;-58
2023/07/19 02:52:26;;;;;;;;;3.00;2.00;;;;;27.87;47.99;100918.53;2105198;28;46280;-58
2023/07/19 02:53:26;;;;;;;;;3.25;3.25;;;;;27.90;48.34;100919.13;2104991;28;46477;-57
2023/07/19 02:54:27;;;;;;;;;2.75;2.75;;;;;27.91;47.96;100922.72;2104797;28;45398;-58
2023/07/19 02:55:27;;;;;;;;;2.25;2.25;;;;;27.88;48.15;100921.13;2095324;28;46188;-58
2023/07/19 02:56:27;;;;;;;;;2.00;2.00;;;;;27.88;48.58;100918.41;2095593;28;46647;-57
2023/07/19 02:57:27;;;;;;;;;2.00;2.00;;;;;27.88;48.20;100925.72;2104926;28;46400;-58
2023/07/19 02:58:28;;;;;;;;;2.75;2.00;;;;;27.86;48.40;100917.69;2105001;28;46536;-58
2023/07/19 02:59:29;;;;;;;;;1.75;1.75;;;;;27.85;48.29;100921.41;2105055;28;46606;-58
2023/07/19 03:00:29;;;;;;;;;3.25;3.00;;;;;27.83;48.66;100926.16;2104765;28;46476;-58
2023/07/19 03:01:30;;;;;;;;;2.00;2.00;;;;;27.77;48.76;100921.25;2104931;28;46789;-58
2023/07/19 03:02:30;;;;;;;;;3.50;1.50;;;;;27.76;49.52;100920.38;2104275;28;46254;-57
2023/07/19 03:03:31;;;;;;;;;4.50;4.50;;;;;27.73;49.40;100920.66;2096023;28;46876;-56
2023/07/19 03:04:31;;;;;;;;;4.25;3.00;;;;;27.72;49.49;100924.41;2096182;28;46598;-55
2023/07/19 03:05:34;;;;;;;;;3.75;2.50;;;;;27.69;49.64;100921.91;2104805;28;46746;-58
2023/07/19 03:06:34;;;;;;;;;2.60;2.60;;;;;27.66;49.53;100926.78;2096361;28;46535;-58
2023/07/19 03:07:36;;;;;;;;;2.25;2.25;;;;;27.63;49.61;100919.72;2087090;28;46181;-58
2023/07/19 03:08:37;;;;;;;;;5.40;4.00;;;;;27.67;49.53;100925.78;2096329;28;46314;-56
2023/07/19 03:09:38;;;;;;;;;1.60;1.60;;;;;27.60;50.42;100921.88;2104964;28;46680;-58
2023/07/19 03:10:39;;;;;;;;;3.00;3.00;;;;;27.66;50.03;100927.66;2104945;28;46190;-56
2023/07/19 03:11:39;;;;;;;;;2.40;2.40;;;;;27.63;50.10;100925.19;2105072;28;46558;-58
2023/07/19 03:12:39;;;;;;;;;2.50;2.50;;;;;27.63;50.06;100927.06;2104948;28;46656;-56
2023/07/19 03:13:40;;;;;;;;;3.75;1.00;;;;;27.61;50.56;100929.06;2104802;28;46894;-55
2023/07/19 03:14:40;;;;;;;;;1.00;1.00;;;;;27.62;50.09;100925.31;2105145;28;46626;-57
2023/07/19 03:15:46;;;;;;;;;3.00;1.33;;;;;27.62;50.42;100923.47;2104775;28;46622;-55
2023/07/19 03:16:47;;;;;;;;;2.00;2.00;;;;;27.60;50.49;100927.34;2105337;28;46722;-57
2023/07/19 03:17:47;;;;;;;;;3.00;3.00;;;;;27.60;50.52;100932.78;2104736;28;46322;-57
2023/07/19 03:18:47;;;;;;;;;3.67;2.33;;;;;27.59;50.64;100931.94;2104985;28;46292;-56
2023/07/19 03:19:48;;;;;;;;;4.00;3.00;;;;;27.59;50.62;100939.25;2104585;28;46525;-59
2023/07/19 03:20:56;;;;;;;;;1.33;1.33;;;;;27.58;50.33;100924.75;2104922;28;46937;-57
2023/07/19 03:21:56;;;;;;;;;1.40;1.40;;;;;27.56;50.47;100929.44;2105084;28;46438;-58
2023/07/19 03:22:57;;;;;;;;;3.75;2.00;;;;;27.54;50.58;100928.72;2104690;28;46206;-56
2023/07/19 03:23:57;;;;;;;;;1.60;1.60;;;;;27.52;50.48;100934.31;2105476;28;45720;-56
2023/07/19 03:24:58;;;;;;;;;2.00;2.00;;;;;27.44;50.80;100931.44;2106434;28;46127;-58
2023/07/19 03:25:58;;;;;;;;;2.25;2.25;;;;;27.48;51.24;100932.88;2106274;28;46661;-56
2023/07/19 03:26:59;;;;;;;;;3.00;3.00;;;;;27.49;51.10;100931.88;2106666;28;46399;-57
2023/07/19 03:27:59;;;;;;;;;1.33;1.00;;;;;27.49;51.26;100933.75;2106323;28;45722;-57
2023/07/19 03:29:00;;;;;;;;;2.00;2.00;;;;;27.49;50.52;100933.75;2105915;28;46770;-57
2023/07/19 03:30:00;;;;;;;;;2.75;2.25;;;;;27.48;50.83;100940.19;2105323;28;46160;-57
2023/07/19 03:31:00;;;;;;;;;2.00;2.00;;;;;27.44;51.01;100936.88;2105483;28;46568;-57
2023/07/19 03:32:01;;;;;;;;;3.00;3.00;;;;;27.43;51.03;100934.28;2106357;28;46067;-57
2023/07/19 03:33:01;;;;;;;;;1.67;1.67;;;;;27.42;51.73;100936.13;2106408;28;46635;-57
2023/07/19 03:34:02;;;;;;;;;3.75;2.75;;;;;27.40;51.56;100937.28;2106411;28;46490;-55
2023/07/19 03:35:04;;;;;;;;;3.80;3.20;;;;;27.37;51.45;100938.41;2106479;28;46748;-57
2023/07/19 03:36:05;;;;;;;;;2.00;2.00;;;;;27.30;51.98;100945.41;2106295;28;47037;-57
2023/07/19 03:37:05;;;;;;;;;3.33;3.33;;;;;27.26;51.66;100939.38;2106415;28;46265;-57
2023/07/19 03:38:05;;;;;;;;;3.50;2.00;;;;;27.24;51.73;100944.09;2106295;28;46440;-57
2023/07/19 03:39:06;;;;;;;;;2.00;2.00;;;;;27.28;51.46;100940.09;2105937;28;46839;-57
2023/07/19 03:40:07;;;;;;;;;3.00;3.00;;;;;27.31;51.63;100938.94;2106589;28;47005;-56
2023/07/19 03:41:08;;;;;;;;;2.20;2.20;;;;;27.26;52.10;100944.81;2106205;28;46571;-56
2023/07/19 03:42:09;;;;;;;;;3.60;3.60;;;;;27.25;51.70;100940.38;2106428;28;45706;-55
2023/07/19 03:43:09;;;;;;;;;3.50;3.50;;;;;27.33;51.87;100939.69;2106391;28;46472;-57
2023/07/19 03:44:10;;;;;;;;;2.00;2.00;;;;;27.32;51.61;100942.56;2106437;28;46789;-57
2023/07/19 03:45:10;;;;;;;;;2.25;2.25;;;;;27.28;52.02;100948.25;2106122;28;45822;-58
2023/07/19 03:46:11;;;;;;;;;4.00;2.00;;;;;27.28;51.30;100951.00;2105959;28;46330;-57
2023/07/19 03:47:12;;;;;;;;;1.00;1.00;;;;;27.26;51.56;100963.03;2097127;28;46737;-57
2023/07/19 03:48:12;;;;;;;;;2.00;2.00;;;;;27.23;51.64;100956.00;2097331;28;46545;-57
2023/07/19 03:49:12;;;;;;;;;2.50;2.50;;;;;27.15;51.26;100958.50;2106108;28;46835;-56
2023/07/19 03:50:13;;;;;;;;;2.00;2.00;;;;;27.11;51.36;100957.06;2106272;28;46628;-57
2023/07/19 03:51:13;;;;;;;;;3.00;3.00;;;;;27.17;51.23;100959.25;2106012;28;46649;-56
2023/07/19 03:52:13;;;;;;;;;1.33;1.33;;;;;27.13;51.21;100960.50;2106381;28;46873;-58
2023/07/19 03:53:14;;;;;;;;;1.00;1.00;;;;;27.06;51.12;100958.44;2096687;28;46214;-57
2023/07/19 03:54:14;;;;;;;;;1.00;1.00;;;;;27.13;51.01;100968.69;2097439;28;46298;-55
2023/07/19 03:55:14;;;;;;;;;2.25;2.25;;;;;27.12;50.21;100964.25;2106615;27;46308;-57
2023/07/19 03:56:15;;;;;;;;;3.50;3.00;;;;;27.10;50.91;100963.50;2105974;28;46267;-57
2023/07/19 03:57:15;;;;;;;;;2.25;2.25;;;;;27.09;50.44;100961.78;2106633;28;46227;-57
2023/07/19 03:58:15;;;;;;;;;3.00;2.00;;;;;27.07;50.97;100963.78;2106171;28;46187;-57
2023/07/19 03:59:15;;;;;;;;;1.25;1.25;;;;;27.06;50.38;100963.88;2106269;28;46747;-57
2023/07/19 04:00:16;;;;;;;;;2.00;0.75;;;;;26.97;49.89;100969.13;2096813;28;46456;-57
2023/07/19 04:01:17;;;;;;;;;3.00;2.00;;;;;26.96;50.86;100972.84;2097630;28;46243;-57
2023/07/19 04:02:17;;;;;;;;;1.75;1.00;;;;;26.97;50.01;100971.84;2105893;28;46555;-54
2023/07/19 04:03:18;;;;;;;;;1.75;1.25;;;;;26.94;50.19;100977.56;2106036;28;46344;-56
2023/07/19 04:04:18;;;;;;;;;2.20;1.00;;;;;26.92;50.26;100976.81;2101252;28;46256;-58
2023/07/19 04:05:19;;;;;;;;;1.75;1.75;;;;;26.92;49.86;100975.94;2106081;28;46191;-58
2023/07/19 04:06:19;;;;;;;;;1.00;1.00;;;;;26.90;49.47;100984.25;2105816;28;46209;-56
2023/07/19 04:07:19;;;;;;;;;1.00;1.00;;;;;26.89;49.64;100976.22;2106554;28;45828;-57
2023/07/19 04:08:20;;;;;;;;;0.75;0.75;;;;;26.87;49.71;100972.78;2106095;28;46695;-57
2023/07/19 04:09:20;;;;;;;;;1.50;1.50;;;;;26.86;49.58;100974.63;2105937;28;46612;-58
2023/07/19 04:10:21;;;;;;;;;2.00;2.00;;;;;26.85;49.29;100982.94;2106044;28;46447;-58
2023/07/19 04:11:21;;;;;;;;;1.25;1.25;;;;;26.83;49.50;100982.22;2105996;28;46549;-57
2023/07/19 04:12:22;;;;;;;;;0.00;0.00;;;;;26.79;49.54;100984.31;2105746;28;46577;-56
2023/07/19 04:13:22;;;;;;;;;0.25;0.25;;;;;26.82;49.43;100985.94;2106631;28;46557;-57
2023/07/19 04:14:22;;;;;;;;;1.75;1.75;;;;;26.82;48.74;100988.66;2106050;28;46325;-56
2023/07/19 04:15:23;;;;;;;;;1.25;1.25;;;;;26.81;48.66;100985.06;2105785;28;45355;-57
2023/07/19 04:16:23;;;;;;;;;1.00;1.00;;;;;26.88;48.28;100991.69;2087983;28;46968;-58
2023/07/19 04:17:23;;;;;;;;;1.25;1.25;;;;;26.88;48.53;100993.56;2088469;28;47067;-57
2023/07/19 04:18:25;;;;;;;;;2.00;2.00;;;;;26.88;48.05;100991.69;2106050;28;46206;-56
2023/07/19 04:19:25;;;;;;;;;1.00;1.00;;;;;26.87;48.11;100994.56;2105842;28;46390;-56
2023/07/19 04:20:26;;;;;;;;;1.50;1.50;;;;;26.86;47.52;100992.84;2106251;28;46569;-55
2023/07/19 04:21:26;;;;;;;;;0.50;0.50;;;;;26.86;47.92;101001.00;2106166;28;46451;-55
2023/07/19 04:22:26;;;;;;;;;1.00;1.00;;;;;26.85;48.20;100997.41;2106113;28;46856;-57
2023/07/19 04:23:27;;;;;;;;;3.00;1.75;;;;;26.86;48.05;101001.00;2106259;28;46299;-57
2023/07/19 04:24:27;;;;;;;;;0.00;0.00;;;;;26.85;48.13;101007.44;2105812;28;46477;-56
2023/07/19 04:25:27;;;;;;;;;2.50;2.50;;;;;26.83;47.69;101002.13;2106071;28;46296;-56
2023/07/19 04:26:28;;;;;;;;;0.75;0.00;;;;;26.80;47.99;100996.94;2106174;28;46631;-55
2023/07/19 04:27:28;;;;;;;;;1.50;0.25;;;;;26.80;47.69;100993.34;2105768;28;46333;-54
2023/07/19 04:28:28;;;;;;;;;0.00;0.00;;;;;26.77;47.94;101001.78;2106213;28;46851;-56
2023/07/19 04:29:28;;;;;;;;;0.25;0.25;;;;;26.77;47.29;101007.22;2106150;28;46553;-57
2023/07/19 04:30:29;;;;;;;;;1.00;1.00;;;;;26.76;47.67;101003.63;2106092;28;46117;-57
2023/07/19 04:31:29;;;;;;;;;1.75;0.25;;;;;26.73;47.91;100997.59;2105776;28;46482;-57
2023/07/19 04:32:29;;;;;;;;;0.00;0.00;;;;;26.71;47.60;100997.75;2105980;28;46425;-57
2023/07/19 04:33:30;;;;;;;;;0.00;0.00;;;;;26.68;47.37;101001.59;2105758;28;46446;-57
2023/07/19 04:34:31;;;;;;;;;0.00;0.00;;;;;26.68;47.77;101006.16;2105512;27;46521;-56
2023/07/19 04:35:31;;;;;;;;;0.25;0.25;;;;;26.65;48.09;101004.53;2105378;28;46195;-59
2023/07/19 04:36:31;;;;;;;;;2.00;1.00;;;;;26.63;48.44;100997.50;2106150;28;46437;-57
2023/07/19 04:37:32;;;;;;;;;0.50;0.50;;;;;26.60;47.98;100997.78;2105777;28;46785;-58
2023/07/19 04:38:32;;;;;;;;;0.00;0.00;;;;;26.56;48.36;100997.19;2105550;28;46531;-57
2023/07/19 04:39:32;;;;;;;;;3.00;1.75;;;;;26.56;48.21;100997.19;2105915;28;46626;-56
2023/07/19 04:40:33;;;;;;;;;2.00;1.00;;;;;26.55;48.93;101003.63;2105949;28;46356;-57
2023/07/19 04:41:33;;;;;;;;;2.75;1.00;;;;;26.55;48.72;101000.00;2106104;28;46250;-55